sensor_id;sensor_type;location;lat;lon;timestamp;P1;durP1;ratioP1;P2;durP2;ratioP2
54795;SDS011;40693;43.884;20.340;2023-07-28T00:01:09;4.40;;;3.85;;
54795;SDS011;40693;43.884;20.340;2023-07-28T00:03:34;5.88;;;4.05;;
54795;SDS011;40693;43.884;20.340;2023-07-28T00:06:00;6.93;;;4.72;;
54795;SDS011;40693;43.884;20.340;2023-07-28T00:08:29;5.47;;;4.30;;
54795;SDS011;40693;43.884;20.340;2023-07-28T00:10:55;6.22;;;4.00;;
54795;SDS011;40693;43.884;20.340;2023-07-28T00:13:21;8.63;;;4.00;;
54795;SDS011;40693;43.884;20.340;2023-07-28T00:15:47;5.47;;;3.92;;
54795;SDS011;40693;43.884;20.340;2023-07-28T00:18:13;5.35;;;4.10;;
54795;SDS011;40693;43.884;20.340;2023-07-28T00:20:39;6.78;;;4.20;;
54795;SDS011;40693;43.884;20.340;2023-07-28T00:23:05;4.68;;;3.78;;
54795;SDS011;40693;43.884;20.340;2023-07-28T00:25:30;5.20;;;4.00;;
54795;SDS011;40693;43.884;20.340;2023-07-28T00:27:56;5.75;;;4.22;;
54795;SDS011;40693;43.884;20.340;2023-07-28T00:30:22;5.32;;;4.20;;
54795;SDS011;40693;43.884;20.340;2023-07-28T00:32:51;4.88;;;3.95;;
54795;SDS011;40693;43.884;20.340;2023-07-28T00:35:20;5.20;;;4.18;;
54795;SDS011;40693;43.884;20.340;2023-07-28T00:37:46;5.53;;;4.18;;
54795;SDS011;40693;43.884;20.340;2023-07-28T00:40:12;7.53;;;4.57;;
54795;SDS011;40693;43.884;20.340;2023-07-28T00:42:38;5.53;;;4.43;;
54795;SDS011;40693;43.884;20.340;2023-07-28T00:45:04;7.57;;;4.40;;
54795;SDS011;40693;43.884;20.340;2023-07-28T00:47:30;6.47;;;5.07;;
54795;SDS011;40693;43.884;20.340;2023-07-28T00:49:56;4.70;;;4.10;;
54795;SDS011;40693;43.884;20.340;2023-07-28T00:52:22;5.75;;;4.57;;
54795;SDS011;40693;43.884;20.340;2023-07-28T00:54:47;5.00;;;3.83;;
54795;SDS011;40693;43.884;20.340;2023-07-28T00:57:13;5.55;;;4.03;;
54795;SDS011;40693;43.884;20.340;2023-07-28T00:59:40;5.43;;;4.22;;
54795;SDS011;40693;43.884;20.340;2023-07-28T01:02:06;4.82;;;4.20;;
54795;SDS011;40693;43.884;20.340;2023-07-28T01:04:32;4.97;;;4.10;;
54795;SDS011;40693;43.884;20.340;2023-07-28T01:07:04;5.55;;;4.15;;
54795;SDS011;40693;43.884;20.340;2023-07-28T01:09:50;7.00;;;4.38;;
54795;SDS011;40693;43.884;20.340;2023-07-28T01:12:23;7.22;;;4.05;;
54795;SDS011;40693;43.884;20.340;2023-07-28T01:14:49;4.82;;;4.30;;
54795;SDS011;40693;43.884;20.340;2023-07-28T01:17:15;6.30;;;3.97;;
54795;SDS011;40693;43.884;20.340;2023-07-28T01:19:41;5.35;;;4.80;;
54795;SDS011;40693;43.884;20.340;2023-07-28T01:22:13;5.40;;;4.05;;
54795;SDS011;40693;43.884;20.340;2023-07-28T01:24:55;5.45;;;4.15;;
54795;SDS011;40693;43.884;20.340;2023-07-28T01:27:40;5.45;;;4.13;;
54795;SDS011;40693;43.884;20.340;2023-07-28T01:30:08;6.05;;;4.53;;
54795;SDS011;40693;43.884;20.340;2023-07-28T01:32:36;7.20;;;4.38;;
54795;SDS011;40693;43.884;20.340;2023-07-28T01:35:04;5.63;;;4.15;;
54795;SDS011;40693;43.884;20.340;2023-07-28T01:37:30;6.65;;;4.13;;
54795;SDS011;40693;43.884;20.340;2023-07-28T01:39:56;6.05;;;3.88;;
54795;SDS011;40693;43.884;20.340;2023-07-28T01:42:23;4.38;;;3.88;;
54795;SDS011;40693;43.884;20.340;2023-07-28T01:44:49;4.75;;;4.07;;
54795;SDS011;40693;43.884;20.340;2023-07-28T01:47:15;5.13;;;4.25;;
54795;SDS011;40693;43.884;20.340;2023-07-28T01:49:41;5.88;;;4.25;;
54795;SDS011;40693;43.884;20.340;2023-07-28T01:52:07;4.80;;;3.55;;
54795;SDS011;40693;43.884;20.340;2023-07-28T01:54:32;4.40;;;3.60;;
54795;SDS011;40693;43.884;20.340;2023-07-28T01:56:58;4.32;;;3.63;;
54795;SDS011;40693;43.884;20.340;2023-07-28T01:59:24;4.40;;;3.80;;
54795;SDS011;40693;43.884;20.340;2023-07-28T02:01:50;5.78;;;4.28;;
54795;SDS011;40693;43.884;20.340;2023-07-28T02:04:16;5.53;;;4.65;;
54795;SDS011;40693;43.884;20.340;2023-07-28T02:06:41;5.30;;;4.07;;
54795;SDS011;40693;43.884;20.340;2023-07-28T02:09:07;4.80;;;4.20;;
54795;SDS011;40693;43.884;20.340;2023-07-28T02:11:33;4.55;;;3.75;;
54795;SDS011;40693;43.884;20.340;2023-07-28T02:13:59;7.13;;;4.43;;
54795;SDS011;40693;43.884;20.340;2023-07-28T02:16:25;8.00;;;4.07;;
54795;SDS011;40693;43.884;20.340;2023-07-28T02:18:53;5.20;;;3.97;;
54795;SDS011;40693;43.884;20.340;2023-07-28T02:21:19;7.50;;;5.05;;
54795;SDS011;40693;43.884;20.340;2023-07-28T02:23:45;9.73;;;4.78;;
54795;SDS011;40693;43.884;20.340;2023-07-28T02:26:10;6.22;;;4.50;;
54795;SDS011;40693;43.884;20.340;2023-07-28T02:28:36;7.22;;;4.47;;
54795;SDS011;40693;43.884;20.340;2023-07-28T02:31:02;6.43;;;3.92;;
54795;SDS011;40693;43.884;20.340;2023-07-28T02:33:28;8.50;;;5.00;;
54795;SDS011;40693;43.884;20.340;2023-07-28T02:36:00;7.72;;;4.40;;
54795;SDS011;40693;43.884;20.340;2023-07-28T02:38:26;4.43;;;3.85;;
54795;SDS011;40693;43.884;20.340;2023-07-28T02:40:51;6.30;;;3.70;;
54795;SDS011;40693;43.884;20.340;2023-07-28T02:43:18;6.45;;;4.28;;
54795;SDS011;40693;43.884;20.340;2023-07-28T02:45:47;5.10;;;4.25;;
54795;SDS011;40693;43.884;20.340;2023-07-28T02:48:13;7.45;;;4.57;;
54795;SDS011;40693;43.884;20.340;2023-07-28T02:50:44;6.53;;;4.03;;
54795;SDS011;40693;43.884;20.340;2023-07-28T02:53:12;10.88;;;4.72;;
54795;SDS011;40693;43.884;20.340;2023-07-28T02:55:41;8.07;;;4.07;;
54795;SDS011;40693;43.884;20.340;2023-07-28T02:58:08;7.03;;;4.70;;
54795;SDS011;40693;43.884;20.340;2023-07-28T03:00:36;7.07;;;5.07;;
54795;SDS011;40693;43.884;20.340;2023-07-28T03:03:03;5.68;;;4.30;;
54795;SDS011;40693;43.884;20.340;2023-07-28T03:05:30;5.45;;;4.43;;
54795;SDS011;40693;43.884;20.340;2023-07-28T03:07:56;6.93;;;4.65;;
54795;SDS011;40693;43.884;20.340;2023-07-28T03:10:23;4.40;;;4.00;;
54795;SDS011;40693;43.884;20.340;2023-07-28T03:12:48;7.88;;;5.38;;
54795;SDS011;40693;43.884;20.340;2023-07-28T03:15:14;6.85;;;4.85;;
54795;SDS011;40693;43.884;20.340;2023-07-28T03:17:40;6.63;;;4.55;;
54795;SDS011;40693;43.884;20.340;2023-07-28T03:20:06;6.18;;;4.70;;
54795;SDS011;40693;43.884;20.340;2023-07-28T03:22:32;10.43;;;4.97;;
54795;SDS011;40693;43.884;20.340;2023-07-28T03:24:57;7.65;;;5.22;;
54795;SDS011;40693;43.884;20.340;2023-07-28T03:27:23;7.45;;;4.80;;
54795;SDS011;40693;43.884;20.340;2023-07-28T03:29:50;6.45;;;4.65;;
54795;SDS011;40693;43.884;20.340;2023-07-28T03:32:16;6.15;;;4.60;;
54795;SDS011;40693;43.884;20.340;2023-07-28T03:34:41;8.00;;;4.82;;
54795;SDS011;40693;43.884;20.340;2023-07-28T03:37:07;7.82;;;5.10;;
54795;SDS011;40693;43.884;20.340;2023-07-28T03:39:33;6.70;;;4.40;;
54795;SDS011;40693;43.884;20.340;2023-07-28T03:41:59;8.32;;;4.57;;
54795;SDS011;40693;43.884;20.340;2023-07-28T03:44:25;7.00;;;4.43;;
54795;SDS011;40693;43.884;20.340;2023-07-28T03:46:51;5.53;;;4.07;;
54795;SDS011;40693;43.884;20.340;2023-07-28T03:49:17;5.70;;;4.60;;
54795;SDS011;40693;43.884;20.340;2023-07-28T03:51:45;5.95;;;4.78;;
54795;SDS011;40693;43.884;20.340;2023-07-28T03:54:10;6.93;;;4.75;;
54795;SDS011;40693;43.884;20.340;2023-07-28T03:56:36;6.60;;;5.40;;
54795;SDS011;40693;43.884;20.340;2023-07-28T03:59:02;6.88;;;4.68;;
54795;SDS011;40693;43.884;20.340;2023-07-28T04:01:27;7.15;;;4.78;;
54795;SDS011;40693;43.884;20.340;2023-07-28T04:03:53;7.20;;;4.72;;
54795;SDS011;40693;43.884;20.340;2023-07-28T04:06:19;9.35;;;5.22;;
54795;SDS011;40693;43.884;20.340;2023-07-28T04:09:05;8.27;;;5.75;;
54795;SDS011;40693;43.884;20.340;2023-07-28T04:11:31;6.68;;;4.90;;
54795;SDS011;40693;43.884;20.340;2023-07-28T04:13:57;7.35;;;5.00;;
54795;SDS011;40693;43.884;20.340;2023-07-28T04:16:23;6.95;;;4.28;;
54795;SDS011;40693;43.884;20.340;2023-07-28T04:18:48;9.35;;;4.57;;
54795;SDS011;40693;43.884;20.340;2023-07-28T04:21:14;7.90;;;4.85;;
54795;SDS011;40693;43.884;20.340;2023-07-28T04:23:40;6.28;;;4.32;;
54795;SDS011;40693;43.884;20.340;2023-07-28T04:26:06;5.70;;;4.47;;
54795;SDS011;40693;43.884;20.340;2023-07-28T04:28:31;8.95;;;4.80;;
54795;SDS011;40693;43.884;20.340;2023-07-28T04:30:57;7.63;;;4.97;;
54795;SDS011;40693;43.884;20.340;2023-07-28T04:33:23;6.95;;;5.25;;
54795;SDS011;40693;43.884;20.340;2023-07-28T04:35:48;8.20;;;5.53;;
54795;SDS011;40693;43.884;20.340;2023-07-28T04:38:14;7.45;;;5.80;;
54795;SDS011;40693;43.884;20.340;2023-07-28T04:40:40;6.70;;;5.40;;
54795;SDS011;40693;43.884;20.340;2023-07-28T04:43:05;11.10;;;6.30;;
54795;SDS011;40693;43.884;20.340;2023-07-28T04:45:31;7.20;;;4.78;;
54795;SDS011;40693;43.884;20.340;2023-07-28T04:47:57;6.72;;;5.30;;
54795;SDS011;40693;43.884;20.340;2023-07-28T04:50:23;7.15;;;5.00;;
54795;SDS011;40693;43.884;20.340;2023-07-28T04:52:49;9.80;;;5.57;;
54795;SDS011;40693;43.884;20.340;2023-07-28T04:55:15;6.60;;;4.88;;
54795;SDS011;40693;43.884;20.340;2023-07-28T04:57:41;7.63;;;5.55;;
54795;SDS011;40693;43.884;20.340;2023-07-28T05:00:06;10.48;;;5.63;;
54795;SDS011;40693;43.884;20.340;2023-07-28T05:02:33;6.78;;;4.40;;
54795;SDS011;40693;43.884;20.340;2023-07-28T05:04:59;6.70;;;5.30;;
54795;SDS011;40693;43.884;20.340;2023-07-28T05:07:25;6.18;;;5.57;;
54795;SDS011;40693;43.884;20.340;2023-07-28T05:09:51;8.52;;;5.32;;
54795;SDS011;40693;43.884;20.340;2023-07-28T05:12:17;9.35;;;5.28;;
54795;SDS011;40693;43.884;20.340;2023-07-28T05:14:43;6.82;;;4.65;;
54795;SDS011;40693;43.884;20.340;2023-07-28T05:17:08;8.20;;;5.65;;
54795;SDS011;40693;43.884;20.340;2023-07-28T05:19:34;7.68;;;5.38;;
54795;SDS011;40693;43.884;20.340;2023-07-28T05:22:00;6.18;;;5.35;;
54795;SDS011;40693;43.884;20.340;2023-07-28T05:24:25;5.25;;;4.57;;
54795;SDS011;40693;43.884;20.340;2023-07-28T05:26:51;10.10;;;5.47;;
54795;SDS011;40693;43.884;20.340;2023-07-28T05:29:17;8.63;;;5.80;;
54795;SDS011;40693;43.884;20.340;2023-07-28T05:31:43;10.57;;;6.03;;
54795;SDS011;40693;43.884;20.340;2023-07-28T05:34:09;9.88;;;5.05;;
54795;SDS011;40693;43.884;20.340;2023-07-28T05:36:37;7.32;;;5.72;;
54795;SDS011;40693;43.884;20.340;2023-07-28T05:39:02;8.20;;;5.50;;
54795;SDS011;40693;43.884;20.340;2023-07-28T05:41:28;7.72;;;5.28;;
54795;SDS011;40693;43.884;20.340;2023-07-28T05:43:54;7.90;;;5.40;;
54795;SDS011;40693;43.884;20.340;2023-07-28T05:46:19;8.38;;;5.68;;
54795;SDS011;40693;43.884;20.340;2023-07-28T05:48:45;12.52;;;5.88;;
54795;SDS011;40693;43.884;20.340;2023-07-28T05:51:11;8.50;;;6.10;;
54795;SDS011;40693;43.884;20.340;2023-07-28T05:53:36;8.80;;;6.55;;
54795;SDS011;40693;43.884;20.340;2023-07-28T05:56:03;7.95;;;5.72;;
54795;SDS011;40693;43.884;20.340;2023-07-28T05:58:28;12.18;;;7.72;;
54795;SDS011;40693;43.884;20.340;2023-07-28T06:00:54;7.38;;;6.45;;
54795;SDS011;40693;43.884;20.340;2023-07-28T06:03:20;11.18;;;6.97;;
54795;SDS011;40693;43.884;20.340;2023-07-28T06:05:52;8.65;;;5.70;;
54795;SDS011;40693;43.884;20.340;2023-07-28T06:08:18;12.13;;;6.38;;
54795;SDS011;40693;43.884;20.340;2023-07-28T06:10:44;9.73;;;6.50;;
54795;SDS011;40693;43.884;20.340;2023-07-28T06:13:10;10.35;;;6.22;;
54795;SDS011;40693;43.884;20.340;2023-07-28T06:15:38;8.30;;;5.57;;
54795;SDS011;40693;43.884;20.340;2023-07-28T06:18:07;10.07;;;5.97;;
54795;SDS011;40693;43.884;20.340;2023-07-28T06:20:33;11.40;;;6.07;;
54795;SDS011;40693;43.884;20.340;2023-07-28T06:23:00;11.52;;;6.53;;
54795;SDS011;40693;43.884;20.340;2023-07-28T06:25:26;12.85;;;6.15;;
54795;SDS011;40693;43.884;20.340;2023-07-28T06:27:52;9.05;;;5.85;;
54795;SDS011;40693;43.884;20.340;2023-07-28T06:30:18;9.55;;;5.53;;
54795;SDS011;40693;43.884;20.340;2023-07-28T06:32:44;7.97;;;5.40;;
54795;SDS011;40693;43.884;20.340;2023-07-28T06:35:09;9.05;;;5.50;;
54795;SDS011;40693;43.884;20.340;2023-07-28T06:37:38;7.70;;;5.43;;
54795;SDS011;40693;43.884;20.340;2023-07-28T06:40:05;9.27;;;6.00;;
54795;SDS011;40693;43.884;20.340;2023-07-28T06:42:33;12.27;;;5.55;;
54795;SDS011;40693;43.884;20.340;2023-07-28T06:44:59;9.85;;;5.60;;
54795;SDS011;40693;43.884;20.340;2023-07-28T06:47:26;8.52;;;6.43;;
54795;SDS011;40693;43.884;20.340;2023-07-28T06:49:52;14.52;;;6.50;;
54795;SDS011;40693;43.884;20.340;2023-07-28T06:52:17;8.43;;;5.38;;
54795;SDS011;40693;43.884;20.340;2023-07-28T06:54:43;7.45;;;5.30;;
54795;SDS011;40693;43.884;20.340;2023-07-28T06:57:09;11.52;;;6.13;;
54795;SDS011;40693;43.884;20.340;2023-07-28T06:59:35;9.32;;;5.35;;
54795;SDS011;40693;43.884;20.340;2023-07-28T07:02:01;7.65;;;4.78;;
54795;SDS011;40693;43.884;20.340;2023-07-28T07:04:27;8.43;;;5.85;;
54795;SDS011;40693;43.884;20.340;2023-07-28T07:06:52;8.80;;;5.65;;
54795;SDS011;40693;43.884;20.340;2023-07-28T07:09:18;8.32;;;5.40;;
54795;SDS011;40693;43.884;20.340;2023-07-28T07:11:45;7.55;;;5.18;;
54795;SDS011;40693;43.884;20.340;2023-07-28T07:14:10;8.35;;;6.05;;
54795;SDS011;40693;43.884;20.340;2023-07-28T07:16:36;13.35;;;8.23;;
54795;SDS011;40693;43.884;20.340;2023-07-28T07:19:05;11.35;;;8.80;;
54795;SDS011;40693;43.884;20.340;2023-07-28T07:21:31;12.70;;;8.20;;
54795;SDS011;40693;43.884;20.340;2023-07-28T07:23:57;8.20;;;6.68;;
54795;SDS011;40693;43.884;20.340;2023-07-28T07:26:22;17.48;;;9.50;;
54795;SDS011;40693;43.884;20.340;2023-07-28T07:28:48;12.02;;;8.52;;
54795;SDS011;40693;43.884;20.340;2023-07-28T07:31:46;17.60;;;11.32;;
54795;SDS011;40693;43.884;20.340;2023-07-28T07:34:12;14.02;;;9.35;;
54795;SDS011;40693;43.884;20.340;2023-07-28T07:36:37;17.73;;;7.93;;
54795;SDS011;40693;43.884;20.340;2023-07-28T07:39:04;15.63;;;8.90;;
54795;SDS011;40693;43.884;20.340;2023-07-28T07:41:30;15.18;;;10.65;;
54795;SDS011;40693;43.884;20.340;2023-07-28T07:43:56;13.85;;;8.93;;
54795;SDS011;40693;43.884;20.340;2023-07-28T07:46:22;13.18;;;8.60;;
54795;SDS011;40693;43.884;20.340;2023-07-28T07:48:48;10.68;;;7.05;;
54795;SDS011;40693;43.884;20.340;2023-07-28T07:51:14;9.50;;;7.00;;
54795;SDS011;40693;43.884;20.340;2023-07-28T07:53:41;16.83;;;8.20;;
54795;SDS011;40693;43.884;20.340;2023-07-28T07:56:06;10.35;;;6.57;;
54795;SDS011;40693;43.884;20.340;2023-07-28T07:58:33;8.98;;;5.43;;
54795;SDS011;40693;43.884;20.340;2023-07-28T08:00:59;9.48;;;5.35;;
54795;SDS011;40693;43.884;20.340;2023-07-28T08:03:25;7.80;;;4.82;;
54795;SDS011;40693;43.884;20.340;2023-07-28T08:05:52;9.85;;;5.60;;
54795;SDS011;40693;43.884;20.340;2023-07-28T08:08:18;5.47;;;4.82;;
54795;SDS011;40693;43.884;20.340;2023-07-28T08:10:45;9.43;;;5.75;;
54795;SDS011;40693;43.884;20.340;2023-07-28T08:13:12;7.95;;;5.40;;
54795;SDS011;40693;43.884;20.340;2023-07-28T08:15:38;9.55;;;5.72;;
54795;SDS011;40693;43.884;20.340;2023-07-28T08:18:04;9.10;;;5.18;;
54795;SDS011;40693;43.884;20.340;2023-07-28T08:20:29;6.53;;;4.78;;
54795;SDS011;40693;43.884;20.340;2023-07-28T08:22:56;5.97;;;4.53;;
54795;SDS011;40693;43.884;20.340;2023-07-28T08:25:21;8.27;;;4.90;;
54795;SDS011;40693;43.884;20.340;2023-07-28T08:27:50;11.27;;;4.63;;
54795;SDS011;40693;43.884;20.340;2023-07-28T08:30:16;6.25;;;5.13;;
54795;SDS011;40693;43.884;20.340;2023-07-28T08:32:42;8.70;;;4.55;;
54795;SDS011;40693;43.884;20.340;2023-07-28T08:35:08;7.90;;;5.20;;
54795;SDS011;40693;43.884;20.340;2023-07-28T08:37:34;5.35;;;3.85;;
54795;SDS011;40693;43.884;20.340;2023-07-28T08:40:00;8.60;;;4.20;;
54795;SDS011;40693;43.884;20.340;2023-07-28T08:42:28;6.95;;;4.18;;
54795;SDS011;40693;43.884;20.340;2023-07-28T08:44:55;7.75;;;5.18;;
54795;SDS011;40693;43.884;20.340;2023-07-28T08:47:21;5.90;;;3.80;;
54795;SDS011;40693;43.884;20.340;2023-07-28T08:49:47;7.13;;;5.15;;
54795;SDS011;40693;43.884;20.340;2023-07-28T08:52:15;10.52;;;5.55;;
54795;SDS011;40693;43.884;20.340;2023-07-28T08:54:42;9.30;;;5.05;;
54795;SDS011;40693;43.884;20.340;2023-07-28T08:57:08;7.95;;;4.00;;
54795;SDS011;40693;43.884;20.340;2023-07-28T08:59:35;5.45;;;3.88;;
54795;SDS011;40693;43.884;20.340;2023-07-28T09:02:01;5.20;;;4.20;;
54795;SDS011;40693;43.884;20.340;2023-07-28T09:04:27;4.57;;;3.95;;
54795;SDS011;40693;43.884;20.340;2023-07-28T09:06:53;7.60;;;4.35;;
54795;SDS011;40693;43.884;20.340;2023-07-28T09:09:22;6.28;;;4.00;;
54795;SDS011;40693;43.884;20.340;2023-07-28T09:11:49;6.45;;;3.60;;
54795;SDS011;40693;43.884;20.340;2023-07-28T09:14:19;6.72;;;4.10;;
54795;SDS011;40693;43.884;20.340;2023-07-28T09:16:46;9.23;;;4.85;;
54795;SDS011;40693;43.884;20.340;2023-07-28T09:19:12;6.47;;;3.53;;
54795;SDS011;40693;43.884;20.340;2023-07-28T09:21:39;9.48;;;4.15;;
54795;SDS011;40693;43.884;20.340;2023-07-28T09:24:08;8.23;;;4.43;;
54795;SDS011;40693;43.884;20.340;2023-07-28T09:26:36;6.53;;;4.63;;
54795;SDS011;40693;43.884;20.340;2023-07-28T09:31:38;5.78;;;4.18;;
54795;SDS011;40693;43.884;20.340;2023-07-28T09:34:06;5.47;;;4.30;;
54795;SDS011;40693;43.884;20.340;2023-07-28T09:36:33;8.52;;;4.13;;
54795;SDS011;40693;43.884;20.340;2023-07-28T09:39:00;7.65;;;4.63;;
54795;SDS011;40693;43.884;20.340;2023-07-28T09:41:29;6.68;;;4.45;;
54795;SDS011;40693;43.884;20.340;2023-07-28T09:43:55;6.90;;;4.72;;
54795;SDS011;40693;43.884;20.340;2023-07-28T09:46:22;9.13;;;4.25;;
54795;SDS011;40693;43.884;20.340;2023-07-28T09:48:51;13.07;;;6.18;;
54795;SDS011;40693;43.884;20.340;2023-07-28T09:51:23;6.55;;;4.30;;
54795;SDS011;40693;43.884;20.340;2023-07-28T09:53:56;7.63;;;4.97;;
54795;SDS011;40693;43.884;20.340;2023-07-28T09:56:28;6.30;;;3.80;;
54795;SDS011;40693;43.884;20.340;2023-07-28T09:58:54;7.28;;;4.35;;
54795;SDS011;40693;43.884;20.340;2023-07-28T10:01:22;8.00;;;4.10;;
54795;SDS011;40693;43.884;20.340;2023-07-28T10:03:48;5.78;;;4.10;;
54795;SDS011;40693;43.884;20.340;2023-07-28T10:06:15;5.30;;;3.78;;
54795;SDS011;40693;43.884;20.340;2023-07-28T10:08:42;5.72;;;3.80;;
54795;SDS011;40693;43.884;20.340;2023-07-28T10:11:10;5.45;;;4.25;;
54795;SDS011;40693;43.884;20.340;2023-07-28T10:13:40;4.32;;;3.47;;
54795;SDS011;40693;43.884;20.340;2023-07-28T10:16:07;4.70;;;3.53;;
54795;SDS011;40693;43.884;20.340;2023-07-28T10:18:34;6.20;;;3.67;;
54795;SDS011;40693;43.884;20.340;2023-07-28T10:21:08;7.40;;;3.25;;
54795;SDS011;40693;43.884;20.340;2023-07-28T10:23:41;4.75;;;3.83;;
54795;SDS011;40693;43.884;20.340;2023-07-28T10:26:09;7.85;;;4.28;;
54795;SDS011;40693;43.884;20.340;2023-07-28T10:28:35;7.10;;;3.83;;
54795;SDS011;40693;43.884;20.340;2023-07-28T10:31:09;4.80;;;3.40;;
54795;SDS011;40693;43.884;20.340;2023-07-28T10:33:36;5.32;;;3.13;;
54795;SDS011;40693;43.884;20.340;2023-07-28T10:36:16;4.75;;;3.20;;
54795;SDS011;40693;43.884;20.340;2023-07-28T10:42:03;7.47;;;3.05;;
54795;SDS011;40693;43.884;20.340;2023-07-28T10:44:33;4.20;;;2.97;;
54795;SDS011;40693;43.884;20.340;2023-07-28T10:47:00;4.68;;;2.80;;
54795;SDS011;40693;43.884;20.340;2023-07-28T10:49:26;3.20;;;2.28;;
54795;SDS011;40693;43.884;20.340;2023-07-28T10:51:53;4.72;;;2.92;;
54795;SDS011;40693;43.884;20.340;2023-07-28T10:54:19;5.28;;;3.30;;
54795;SDS011;40693;43.884;20.340;2023-07-28T10:56:46;3.53;;;2.55;;
54795;SDS011;40693;43.884;20.340;2023-07-28T10:59:12;4.35;;;2.65;;
54795;SDS011;40693;43.884;20.340;2023-07-28T11:01:39;3.75;;;2.40;;
54795;SDS011;40693;43.884;20.340;2023-07-28T11:06:38;3.22;;;2.25;;
54795;SDS011;40693;43.884;20.340;2023-07-28T11:09:07;4.85;;;3.25;;
54795;SDS011;40693;43.884;20.340;2023-07-28T11:11:34;5.03;;;2.25;;
54795;SDS011;40693;43.884;20.340;2023-07-28T11:14:03;3.70;;;2.30;;
54795;SDS011;40693;43.884;20.340;2023-07-28T11:16:32;4.55;;;2.50;;
54795;SDS011;40693;43.884;20.340;2023-07-28T11:19:02;7.70;;;2.55;;
54795;SDS011;40693;43.884;20.340;2023-07-28T11:21:29;3.78;;;2.53;;
54795;SDS011;40693;43.884;20.340;2023-07-28T11:23:55;3.95;;;2.42;;
54795;SDS011;40693;43.884;20.340;2023-07-28T11:26:21;4.18;;;2.50;;
54795;SDS011;40693;43.884;20.340;2023-07-28T11:28:47;3.85;;;2.97;;
54795;SDS011;40693;43.884;20.340;2023-07-28T11:31:13;4.75;;;2.58;;
54795;SDS011;40693;43.884;20.340;2023-07-28T11:33:39;4.75;;;2.83;;
54795;SDS011;40693;43.884;20.340;2023-07-28T11:36:05;4.18;;;2.45;;
54795;SDS011;40693;43.884;20.340;2023-07-28T11:38:31;3.30;;;2.55;;
54795;SDS011;40693;43.884;20.340;2023-07-28T11:40:58;3.45;;;2.42;;
54795;SDS011;40693;43.884;20.340;2023-07-28T11:43:25;5.75;;;2.65;;
54795;SDS011;40693;43.884;20.340;2023-07-28T11:45:51;4.22;;;2.42;;
54795;SDS011;40693;43.884;20.340;2023-07-28T11:48:17;3.42;;;2.85;;
54795;SDS011;40693;43.884;20.340;2023-07-28T11:50:43;3.45;;;2.35;;
54795;SDS011;40693;43.884;20.340;2023-07-28T11:53:10;4.93;;;2.50;;
54795;SDS011;40693;43.884;20.340;2023-07-28T11:55:39;5.60;;;2.65;;
54795;SDS011;40693;43.884;20.340;2023-07-28T11:58:06;5.63;;;2.83;;
54795;SDS011;40693;43.884;20.340;2023-07-28T12:00:36;3.35;;;2.33;;
54795;SDS011;40693;43.884;20.340;2023-07-28T12:03:04;4.78;;;2.35;;
54795;SDS011;40693;43.884;20.340;2023-07-28T12:05:31;4.50;;;2.70;;
54795;SDS011;40693;43.884;20.340;2023-07-28T12:07:58;2.88;;;2.10;;
54795;SDS011;40693;43.884;20.340;2023-07-28T12:10:24;3.28;;;2.38;;
54795;SDS011;40693;43.884;20.340;2023-07-28T12:12:51;4.32;;;2.40;;
54795;SDS011;40693;43.884;20.340;2023-07-28T12:15:21;5.10;;;2.40;;
54795;SDS011;40693;43.884;20.340;2023-07-28T12:20:26;3.53;;;2.40;;
54795;SDS011;40693;43.884;20.340;2023-07-28T12:22:51;3.45;;;2.03;;
54795;SDS011;40693;43.884;20.340;2023-07-28T12:25:17;2.72;;;2.00;;
54795;SDS011;40693;43.884;20.340;2023-07-28T12:27:43;7.88;;;2.45;;
54795;SDS011;40693;43.884;20.340;2023-07-28T12:30:09;7.35;;;2.22;;
54795;SDS011;40693;43.884;20.340;2023-07-28T12:32:35;3.17;;;1.95;;
54795;SDS011;40693;43.884;20.340;2023-07-28T12:35:01;3.67;;;2.30;;
54795;SDS011;40693;43.884;20.340;2023-07-28T12:37:26;6.57;;;2.63;;
54795;SDS011;40693;43.884;20.340;2023-07-28T12:39:52;5.15;;;2.80;;
54795;SDS011;40693;43.884;20.340;2023-07-28T12:42:18;5.05;;;2.85;;
54795;SDS011;40693;43.884;20.340;2023-07-28T12:44:45;3.33;;;2.40;;
54795;SDS011;40693;43.884;20.340;2023-07-28T12:47:11;3.97;;;2.65;;
54795;SDS011;40693;43.884;20.340;2023-07-28T12:49:36;4.20;;;2.58;;
54795;SDS011;40693;43.884;20.340;2023-07-28T12:52:04;3.30;;;2.25;;
54795;SDS011;40693;43.884;20.340;2023-07-28T12:54:34;3.55;;;2.28;;
54795;SDS011;40693;43.884;20.340;2023-07-28T12:57:00;2.47;;;1.90;;
54795;SDS011;40693;43.884;20.340;2023-07-28T12:59:26;5.57;;;2.72;;
54795;SDS011;40693;43.884;20.340;2023-07-28T13:01:53;8.07;;;2.65;;
54795;SDS011;40693;43.884;20.340;2023-07-28T13:04:19;3.92;;;2.70;;
54795;SDS011;40693;43.884;20.340;2023-07-28T13:06:45;4.93;;;2.60;;
54795;SDS011;40693;43.884;20.340;2023-07-28T13:09:10;4.53;;;2.80;;
54795;SDS011;40693;43.884;20.340;2023-07-28T13:11:36;2.88;;;1.95;;
54795;SDS011;40693;43.884;20.340;2023-07-28T13:14:02;3.60;;;2.78;;
54795;SDS011;40693;43.884;20.340;2023-07-28T13:16:28;5.78;;;2.90;;
54795;SDS011;40693;43.884;20.340;2023-07-28T13:18:54;3.75;;;2.88;;
54795;SDS011;40693;43.884;20.340;2023-07-28T13:21:21;3.63;;;2.92;;
54795;SDS011;40693;43.884;20.340;2023-07-28T13:23:46;4.88;;;2.75;;
54795;SDS011;40693;43.884;20.340;2023-07-28T13:26:12;4.43;;;2.63;;
54795;SDS011;40693;43.884;20.340;2023-07-28T13:28:38;3.17;;;2.15;;
54795;SDS011;40693;43.884;20.340;2023-07-28T13:31:08;3.38;;;2.50;;
54795;SDS011;40693;43.884;20.340;2023-07-28T13:33:34;3.78;;;2.60;;
54795;SDS011;40693;43.884;20.340;2023-07-28T13:35:59;9.07;;;2.95;;
54795;SDS011;40693;43.884;20.340;2023-07-28T13:38:28;5.28;;;2.83;;
54795;SDS011;40693;43.884;20.340;2023-07-28T13:40:54;5.75;;;2.53;;
54795;SDS011;40693;43.884;20.340;2023-07-28T13:43:20;7.72;;;2.78;;
54795;SDS011;40693;43.884;20.340;2023-07-28T13:45:45;4.47;;;2.45;;
54795;SDS011;40693;43.884;20.340;2023-07-28T13:48:11;4.45;;;2.50;;
54795;SDS011;40693;43.884;20.340;2023-07-28T13:50:37;4.53;;;2.30;;
54795;SDS011;40693;43.884;20.340;2023-07-28T13:53:03;5.68;;;2.60;;
54795;SDS011;40693;43.884;20.340;2023-07-28T13:55:28;6.63;;;2.88;;
54795;SDS011;40693;43.884;20.340;2023-07-28T13:57:54;5.80;;;2.42;;
54795;SDS011;40693;43.884;20.340;2023-07-28T14:00:20;5.25;;;2.60;;
54795;SDS011;40693;43.884;20.340;2023-07-28T14:02:46;3.80;;;2.75;;
54795;SDS011;40693;43.884;20.340;2023-07-28T14:05:11;3.28;;;2.40;;
54795;SDS011;40693;43.884;20.340;2023-07-28T14:07:37;3.92;;;2.10;;
54795;SDS011;40693;43.884;20.340;2023-07-28T14:10:03;3.40;;;2.50;;
54795;SDS011;40693;43.884;20.340;2023-07-28T14:12:29;3.85;;;2.28;;
54795;SDS011;40693;43.884;20.340;2023-07-28T14:14:55;3.78;;;2.40;;
54795;SDS011;40693;43.884;20.340;2023-07-28T14:17:24;4.07;;;2.58;;
54795;SDS011;40693;43.884;20.340;2023-07-28T14:19:49;3.70;;;2.45;;
54795;SDS011;40693;43.884;20.340;2023-07-28T14:22:15;3.95;;;2.55;;
54795;SDS011;40693;43.884;20.340;2023-07-28T14:24:41;5.07;;;2.72;;
54795;SDS011;40693;43.884;20.340;2023-07-28T14:27:06;3.17;;;2.08;;
54795;SDS011;40693;43.884;20.340;2023-07-28T14:29:32;4.03;;;2.72;;
54795;SDS011;40693;43.884;20.340;2023-07-28T14:31:58;5.32;;;2.63;;
54795;SDS011;40693;43.884;20.340;2023-07-28T14:34:24;6.20;;;3.10;;
54795;SDS011;40693;43.884;20.340;2023-07-28T14:36:50;6.07;;;2.67;;
54795;SDS011;40693;43.884;20.340;2023-07-28T14:39:15;3.97;;;2.55;;
54795;SDS011;40693;43.884;20.340;2023-07-28T14:41:42;7.28;;;2.55;;